Time;durP1;ratioP1;P1;durP2;ratioP2;P2;SDS_P1;SDS_P2;PMS_P1;PMS_P2;Temp;Humidity;BMP_temperature;BMP_pressure;BME280_temperature;BME280_humidity;BME280_pressure;Samples;Min_cycle;Max_cycle;Signal;HPM_P1;HPM_P2
2022/11/13 00:01:15;;;;;;;23.37;17.00;;;;;;;;;;5033569;28;20269;-82
2022/11/13 00:03:42;;;;;;;24.50;17.70;;;;;;;;;;5017107;28;20288;-81
2022/11/13 00:06:10;;;;;;;20.77;16.27;;;;;;;;;;5018558;28;20287;-81
2022/11/13 00:08:39;;;;;;;20.10;15.43;;;;;;;;;;5020558;28;20316;-81
2022/11/13 00:11:07;;;;;;;22.30;16.17;;;;;;;;;;5017815;28;20282;-81
2022/11/13 00:13:36;;;;;;;20.30;15.73;;;;;;;;;;5022954;28;20233;-81
2022/11/13 00:16:03;;;;;;;23.23;17.33;;;;;;;;;;5015563;28;20232;-81
2022/11/13 00:18:31;;;;;;;22.07;16.80;;;;;;;;;;5025396;28;20291;-81
2022/11/13 00:20:58;;;;;;;22.60;17.17;;;;;;;;;;5022959;28;20296;-81
2022/11/13 00:23:25;;;;;;;24.77;17.87;;;;;;;;;;5023939;28;20263;-81
2022/11/13 00:25:54;;;;;;;26.17;19.30;;;;;;;;;;5023652;28;20288;-81
2022/11/13 00:28:21;;;;;;;25.53;17.53;;;;;;;;;;5020867;28;20220;-81
2022/11/13 00:30:48;;;;;;;23.40;17.57;;;;;;;;;;5017538;28;20656;-81
2022/11/13 00:33:15;;;;;;;23.50;17.30;;;;;;;;;;5015146;28;20687;-81
2022/11/13 00:35:42;;;;;;;22.13;16.70;;;;;;;;;;5032051;28;20773;-81
2022/11/13 00:38:09;;;;;;;20.20;15.73;;;;;;;;;;5017876;28;20193;-81
2022/11/13 00:40:37;;;;;;;21.07;16.47;;;;;;;;;;5032055;28;20283;-81
2022/11/13 00:43:05;;;;;;;20.17;16.37;;;;;;;;;;5020806;28;20336;-81
2022/11/13 00:45:32;;;;;;;23.07;17.00;;;;;;;;;;5014877;28;20233;-81
2022/11/13 00:47:59;;;;;;;21.43;16.63;;;;;;;;;;5025432;28;20303;-81
2022/11/13 00:50:27;;;;;;;23.57;16.57;;;;;;;;;;5033348;28;20291;-81
2022/11/13 00:52:54;;;;;;;23.70;17.30;;;;;;;;;;5031828;28;20661;-81
2022/11/13 00:55:21;;;;;;;22.47;16.47;;;;;;;;;;5029321;28;20288;-81
2022/11/13 00:57:48;;;;;;;23.07;17.60;;;;;;;;;;5032120;28;20287;-81
2022/11/13 01:00:17;;;;;;;23.47;16.77;;;;;;;;;;5024936;28;20284;-81
2022/11/13 01:02:44;;;;;;;22.37;17.73;;;;;;;;;;5020600;28;20221;-81
2022/11/13 01:05:12;;;;;;;21.63;16.50;;;;;;;;;;5023593;28;20280;-81
2022/11/13 01:07:39;;;;;;;22.20;16.77;;;;;;;;;;5033353;28;20280;-81
2022/11/13 01:10:06;;;;;;;25.83;17.20;;;;;;;;;;5010937;28;20228;-81
2022/11/13 01:12:34;;;;;;;21.43;16.63;;;;;;;;;;5032547;28;20284;-81
2022/11/13 01:15:01;;;;;;;21.10;16.50;;;;;;;;;;5019558;28;20282;-81
2022/11/13 01:17:29;;;;;;;23.03;16.63;;;;;;;;;;5018636;28;20237;-81
2022/11/13 01:19:57;;;;;;;22.43;16.70;;;;;;;;;;5014297;28;20280;-81
2022/11/13 01:22:24;;;;;;;23.73;16.93;;;;;;;;;;5017122;28;20287;-81
2022/11/13 01:24:51;;;;;;;21.43;15.77;;;;;;;;;;5033039;28;20200;-81
2022/11/13 01:27:18;;;;;;;20.47;16.87;;;;;;;;;;5033371;28;20291;-81
2022/11/13 01:29:46;;;;;;;21.73;17.17;;;;;;;;;;5015263;28;20800;-80
2022/11/13 01:32:13;;;;;;;22.90;16.90;;;;;;;;;;5028176;28;20356;-81
2022/11/13 01:34:41;;;;;;;24.63;17.50;;;;;;;;;;5023810;28;20296;-81
2022/11/13 01:37:09;;;;;;;22.60;16.80;;;;;;;;;;5025339;28;20228;-81
2022/11/13 01:39:36;;;;;;;24.10;17.70;;;;;;;;;;5023773;28;20232;-81
2022/11/13 01:42:03;;;;;;;25.53;17.87;;;;;;;;;;5013480;28;20760;-82
2022/11/13 01:44:45;;;;;;;21.70;16.83;;;;;;;;;;5014896;28;20233;-81
2022/11/13 01:47:12;;;;;;;23.80;17.87;;;;;;;;;;5034160;28;20240;-81
2022/11/13 01:49:42;;;;;;;22.87;18.13;;;;;;;;;;5016492;28;20256;-80
2022/11/13 01:52:12;;;;;;;22.23;17.57;;;;;;;;;;5027746;28;20236;-81
2022/11/13 01:54:41;;;;;;;25.80;18.80;;;;;;;;;;5032840;28;20283;-81
2022/11/13 01:57:09;;;;;;;24.47;18.17;;;;;;;;;;5025194;28;20275;-81
2022/11/13 01:59:38;;;;;;;26.03;18.80;;;;;;;;;;5018963;28;20228;-81
2022/11/13 02:02:05;;;;;;;25.90;19.30;;;;;;;;;;5026438;28;20624;-81
2022/11/13 02:04:32;;;;;;;24.07;19.20;;;;;;;;;;5022226;28;20279;-82
2022/11/13 02:07:02;;;;;;;25.07;17.80;;;;;;;;;;5029442;28;20693;-81
2022/11/13 02:09:30;;;;;;;23.77;18.33;;;;;;;;;;5027512;28;20252;-81
2022/11/13 02:11:58;;;;;;;24.87;19.57;;;;;;;;;;5020971;28;20422;-80
2022/11/13 02:14:26;;;;;;;23.80;18.53;;;;;;;;;;5020803;28;20287;-82
2022/11/13 02:16:56;;;;;;;27.57;19.13;;;;;;;;;;5021595;28;20225;-80
2022/11/13 02:19:26;;;;;;;25.30;18.93;;;;;;;;;;5020324;28;20272;-79
2022/11/13 02:21:56;;;;;;;26.63;19.37;;;;;;;;;;5021606;28;20287;-79
2022/11/13 02:24:26;;;;;;;24.23;18.63;;;;;;;;;;5027952;28;20292;-79
2022/11/13 02:26:54;;;;;;;25.50;19.03;;;;;;;;;;5031949;28;20232;-80
2022/11/13 02:29:21;;;;;;;24.33;18.90;;;;;;;;;;5023733;28;20316;-80
2022/11/13 02:31:48;;;;;;;24.87;18.40;;;;;;;;;;5013888;28;20737;-80
2022/11/13 02:34:16;;;;;;;26.33;19.17;;;;;;;;;;5013017;28;20228;-82
2022/11/13 02:36:43;;;;;;;24.20;18.57;;;;;;;;;;5013242;28;20287;-81
2022/11/13 02:39:12;;;;;;;24.93;18.37;;;;;;;;;;5029893;28;20231;-82
2022/11/13 02:41:41;;;;;;;25.77;18.67;;;;;;;;;;5020789;28;20279;-81
2022/11/13 02:44:08;;;;;;;23.77;17.40;;;;;;;;;;5033184;28;20251;-81
2022/11/13 02:46:36;;;;;;;27.20;18.80;;;;;;;;;;5031049;28;20243;-81
2022/11/13 02:49:04;;;;;;;27.50;19.00;;;;;;;;;;5017513;28;20282;-81
2022/11/13 02:51:31;;;;;;;25.43;18.50;;;;;;;;;;5012822;28;20201;-81
2022/11/13 02:53:58;;;;;;;25.93;18.90;;;;;;;;;;5015651;28;20254;-81
2022/11/13 02:56:26;;;;;;;25.77;19.10;;;;;;;;;;5020900;28;20255;-81
2022/11/13 02:58:54;;;;;;;27.67;19.07;;;;;;;;;;5024801;28;20251;-80
2022/11/13 03:01:21;;;;;;;25.07;18.20;;;;;;;;;;5017143;28;20287;-81
2022/11/13 03:03:49;;;;;;;25.27;18.03;;;;;;;;;;5020253;28;20291;-81
2022/11/13 03:06:16;;;;;;;26.20;18.23;;;;;;;;;;5025093;28;20883;-81
2022/11/13 03:08:43;;;;;;;25.23;18.73;;;;;;;;;;5030529;28;20311;-81
2022/11/13 03:11:11;;;;;;;23.30;18.00;;;;;;;;;;5028405;28;20295;-81
2022/11/13 03:13:38;;;;;;;23.80;18.60;;;;;;;;;;5029821;28;20646;-81
2022/11/13 03:16:08;;;;;;;25.20;17.43;;;;;;;;;;5012445;28;20291;-81
2022/11/13 03:18:36;;;;;;;25.10;18.00;;;;;;;;;;5018956;28;20197;-82
2022/11/13 03:21:07;;;;;;;25.30;18.40;;;;;;;;;;5031066;28;20267;-81
2022/11/13 03:23:34;;;;;;;25.97;17.73;;;;;;;;;;5029655;28;20291;-81
2022/11/13 03:26:03;;;;;;;24.67;18.90;;;;;;;;;;5021847;28;20287;-81
2022/11/13 03:28:30;;;;;;;26.03;19.13;;;;;;;;;;5020105;28;20225;-81
2022/11/13 03:30:58;;;;;;;24.83;18.23;;;;;;;;;;5023219;28;20315;-81
2022/11/13 03:33:26;;;;;;;25.63;18.60;;;;;;;;;;5017170;28;20232;-82
2022/11/13 03:35:53;;;;;;;25.13;17.90;;;;;;;;;;5023589;28;20287;-81
2022/11/13 03:38:21;;;;;;;27.47;18.13;;;;;;;;;;5012344;28;20288;-81
2022/11/13 03:40:48;;;;;;;25.10;18.47;;;;;;;;;;5024012;28;20232;-81
2022/11/13 03:43:15;;;;;;;25.77;18.03;;;;;;;;;;5025224;28;20288;-81
2022/11/13 03:45:45;;;;;;;26.50;17.97;;;;;;;;;;5017494;28;20685;-81
2022/11/13 03:48:13;;;;;;;23.77;17.97;;;;;;;;;;5020280;28;20258;-81
2022/11/13 03:50:43;;;;;;;25.07;17.00;;;;;;;;;;5019612;28;20679;-81
2022/11/13 03:53:10;;;;;;;24.77;17.57;;;;;;;;;;5012152;28;20288;-81
2022/11/13 03:55:38;;;;;;;23.77;17.53;;;;;;;;;;5012599;28;20289;-81
2022/11/13 03:58:05;;;;;;;24.50;18.30;;;;;;;;;;5011985;28;20232;-81
2022/11/13 04:00:33;;;;;;;26.97;17.93;;;;;;;;;;5011326;28;20639;-81
2022/11/13 04:03:00;;;;;;;25.23;17.70;;;;;;;;;;5012135;28;20285;-81
2022/11/13 04:05:27;;;;;;;24.70;17.67;;;;;;;;;;5012824;28;20228;-81
2022/11/13 04:07:56;;;;;;;24.93;18.57;;;;;;;;;;5023938;28;20713;-81
2022/11/13 04:10:23;;;;;;;26.70;18.23;;;;;;;;;;5011484;28;20304;-81
2022/11/13 04:12:50;;;;;;;24.27;17.73;;;;;;;;;;5012346;28;20280;-81
2022/11/13 04:15:18;;;;;;;23.50;17.73;;;;;;;;;;5015187;28;20232;-81
2022/11/13 04:17:45;;;;;;;24.37;17.93;;;;;;;;;;5025858;28;20280;-81
2022/11/13 04:20:12;;;;;;;26.47;17.97;;;;;;;;;;5026743;28;20287;-81
2022/11/13 04:22:40;;;;;;;26.07;17.67;;;;;;;;;;5023928;28;20288;-81
2022/11/13 04:25:09;;;;;;;25.10;17.30;;;;;;;;;;5023416;28;20231;-81
2022/11/13 04:27:36;;;;;;;23.93;17.20;;;;;;;;;;5024302;28;20224;-81
2022/11/13 04:30:04;;;;;;;24.63;17.60;;;;;;;;;;5024334;28;20321;-81
2022/11/13 04:32:32;;;;;;;28.63;17.47;;;;;;;;;;5030358;28;20287;-81
2022/11/13 04:34:59;;;;;;;25.40;17.33;;;;;;;;;;5009739;28;20232;-81
2022/11/13 04:37:26;;;;;;;26.63;17.20;;;;;;;;;;5015680;28;20244;-81
2022/11/13 04:39:53;;;;;;;24.60;17.47;;;;;;;;;;5023500;28;20284;-81
2022/11/13 04:45:07;;;;;;;23.03;17.33;;;;;;;;;;5002410;28;20609;-81
2022/11/13 04:47:34;;;;;;;25.53;18.23;;;;;;;;;;5021946;28;20229;-81
2022/11/13 04:50:01;;;;;;;25.50;18.67;;;;;;;;;;5017720;28;20311;-81
2022/11/13 04:52:29;;;;;;;24.70;17.43;;;;;;;;;;5025292;28;20291;-81
2022/11/13 04:54:56;;;;;;;22.90;17.27;;;;;;;;;;5021957;28;20280;-81
2022/11/13 04:57:25;;;;;;;25.07;18.10;;;;;;;;;;5020851;28;20254;-81
2022/11/13 04:59:52;;;;;;;23.93;16.87;;;;;;;;;;5018430;28;20352;-81
2022/11/13 05:02:19;;;;;;;24.27;17.10;;;;;;;;;;5018202;28;20671;-81
2022/11/13 05:04:46;;;;;;;21.83;16.40;;;;;;;;;;5027522;28;20284;-81
2022/11/13 05:07:13;;;;;;;23.43;16.97;;;;;;;;;;5022226;28;20284;-81
2022/11/13 05:09:41;;;;;;;23.13;16.83;;;;;;;;;;5022101;28;20303;-81
2022/11/13 05:12:08;;;;;;;22.60;16.97;;;;;;;;;;5023362;28;20295;-81
2022/11/13 05:14:37;;;;;;;21.57;16.97;;;;;;;;;;5019757;28;20288;-81
2022/11/13 05:17:04;;;;;;;22.37;15.80;;;;;;;;;;5017944;28;20742;-81
2022/11/13 05:19:32;;;;;;;21.90;16.03;;;;;;;;;;5015442;28;20280;-81
2022/11/13 05:22:00;;;;;;;21.37;16.10;;;;;;;;;;5016246;28;20292;-81
2022/11/13 05:24:27;;;;;;;23.20;16.63;;;;;;;;;;5013732;28;20618;-81
2022/11/13 05:26:54;;;;;;;21.57;15.43;;;;;;;;;;5014779;28;20605;-81
2022/11/13 05:29:21;;;;;;;19.97;15.77;;;;;;;;;;5012873;28;20316;-81
2022/11/13 05:31:50;;;;;;;22.13;15.57;;;;;;;;;;5027372;28;20611;-81
2022/11/13 05:34:17;;;;;;;23.17;15.77;;;;;;;;;;5033510;28;20200;-81
2022/11/13 05:36:44;;;;;;;22.13;15.07;;;;;;;;;;5034433;28;20287;-81
2022/11/13 05:39:12;;;;;;;19.03;14.73;;;;;;;;;;5033188;28;20287;-81
2022/11/13 05:41:39;;;;;;;20.07;15.77;;;;;;;;;;5021860;28;20284;-81
2022/11/13 05:44:06;;;;;;;24.10;16.47;;;;;;;;;;5027832;28;20192;-81
2022/11/13 05:46:33;;;;;;;20.83;16.00;;;;;;;;;;5022185;28;20748;-81
2022/11/13 05:49:02;;;;;;;24.10;15.80;;;;;;;;;;5027962;28;20238;-81
2022/11/13 05:51:32;;;;;;;19.70;15.27;;;;;;;;;;5020373;28;20231;-82
2022/11/13 05:53:59;;;;;;;21.30;15.20;;;;;;;;;;5014361;28;20676;-81
2022/11/13 05:56:27;;;;;;;21.03;15.57;;;;;;;;;;5020965;28;20270;-81
2022/11/13 05:58:55;;;;;;;18.83;15.10;;;;;;;;;;5020719;28;20233;-81
2022/11/13 06:01:24;;;;;;;18.27;14.40;;;;;;;;;;5013222;28;20284;-81
2022/11/13 06:03:51;;;;;;;17.73;14.50;;;;;;;;;;4994712;28;20237;-82
2022/11/13 06:06:21;;;;;;;19.27;14.53;;;;;;;;;;5018574;28;20288;-81
2022/11/13 06:08:48;;;;;;;21.00;15.33;;;;;;;;;;5021004;28;20229;-81
2022/11/13 06:11:16;;;;;;;20.33;15.20;;;;;;;;;;5027006;28;20255;-81
2022/11/13 06:13:44;;;;;;;23.97;15.77;;;;;;;;;;5017517;28;20295;-81
2022/11/13 06:16:11;;;;;;;18.90;14.70;;;;;;;;;;5026081;28;20292;-81
2022/11/13 06:18:40;;;;;;;19.37;14.80;;;;;;;;;;5014259;28;20232;-81
2022/11/13 06:21:08;;;;;;;20.60;15.13;;;;;;;;;;5028235;28;20244;-81
2022/11/13 06:23:38;;;;;;;22.37;15.37;;;;;;;;;;5020991;28;20262;-81
2022/11/13 06:26:06;;;;;;;21.60;15.07;;;;;;;;;;5017444;28;20241;-81
2022/11/13 06:28:33;;;;;;;20.40;14.40;;;;;;;;;;5027632;28;20653;-81
2022/11/13 06:31:04;;;;;;;19.27;14.67;;;;;;;;;;5015242;28;20704;-81
2022/11/13 06:33:31;;;;;;;23.80;15.37;;;;;;;;;;5023542;28;20579;-81
2022/11/13 06:35:58;;;;;;;22.20;15.07;;;;;;;;;;5022601;28;20229;-81
2022/11/13 06:38:25;;;;;;;20.67;15.63;;;;;;;;;;5026683;28;20288;-81
2022/11/13 06:40:54;;;;;;;20.47;14.67;;;;;;;;;;5026612;28;20275;-81
2022/11/13 06:43:21;;;;;;;20.17;15.67;;;;;;;;;;5015824;28;20243;-81
2022/11/13 06:45:48;;;;;;;22.97;15.67;;;;;;;;;;5020489;28;20283;-81
2022/11/13 06:48:16;;;;;;;20.50;15.83;;;;;;;;;;5020731;28;20327;-81
2022/11/13 06:50:43;;;;;;;21.57;15.73;;;;;;;;;;5021434;28;20303;-81
2022/11/13 06:53:10;;;;;;;20.90;15.70;;;;;;;;;;5012079;28;20292;-81
2022/11/13 06:55:42;;;;;;;21.63;16.17;;;;;;;;;;5021281;28;20218;-81
2022/11/13 06:58:11;;;;;;;22.10;16.13;;;;;;;;;;5030758;28;20227;-81
2022/11/13 07:00:38;;;;;;;21.07;15.33;;;;;;;;;;5030582;28;20279;-81
2022/11/13 07:03:05;;;;;;;23.00;15.83;;;;;;;;;;5013024;28;20248;-81
2022/11/13 07:05:32;;;;;;;22.03;16.07;;;;;;;;;;5013198;28;20193;-81
2022/11/13 07:07:59;;;;;;;23.07;16.77;;;;;;;;;;5012597;28;20255;-81
2022/11/13 07:10:27;;;;;;;24.67;17.80;;;;;;;;;;5023340;28;20654;-81
2022/11/13 07:12:54;;;;;;;23.20;16.47;;;;;;;;;;5022412;28;20263;-81
2022/11/13 07:15:22;;;;;;;26.00;16.13;;;;;;;;;;5012081;28;20201;-81
2022/11/13 07:17:49;;;;;;;22.87;17.50;;;;;;;;;;5016373;28;20649;-81
2022/11/13 07:20:17;;;;;;;25.77;18.10;;;;;;;;;;5012220;28;20275;-81
2022/11/13 07:22:44;;;;;;;26.43;18.17;;;;;;;;;;5030579;28;20258;-81
2022/11/13 07:25:11;;;;;;;26.90;18.83;;;;;;;;;;5016315;28;20251;-81
2022/11/13 07:27:39;;;;;;;27.93;18.30;;;;;;;;;;5011798;28;20689;-81
2022/11/13 07:30:07;;;;;;;27.00;19.07;;;;;;;;;;5024115;28;20751;-81
2022/11/13 07:32:36;;;;;;;25.87;18.27;;;;;;;;;;5031784;28;20242;-81
2022/11/13 07:35:03;;;;;;;26.93;18.73;;;;;;;;;;5031998;28;20207;-81
2022/11/13 07:37:38;;;;;;;29.40;18.50;;;;;;;;;;5030129;28;20290;-80
2022/11/13 07:40:06;;;;;;;27.93;18.97;;;;;;;;;;5017259;28;20231;-81
2022/11/13 07:42:33;;;;;;;24.93;18.17;;;;;;;;;;5028154;28;21596;-81
2022/11/13 07:45:00;;;;;;;24.50;18.57;;;;;;;;;;5022857;28;20288;-81
2022/11/13 07:47:28;;;;;;;24.73;18.13;;;;;;;;;;5024062;28;20289;-81
2022/11/13 07:49:56;;;;;;;26.43;17.83;;;;;;;;;;5014200;28;20252;-81
2022/11/13 07:52:23;;;;;;;63.13;18.07;;;;;;;;;;5033788;28;20719;-80
2022/11/13 07:54:51;;;;;;;89.13;18.27;;;;;;;;;;5025059;28;20232;-79
2022/11/13 07:57:19;;;;;;;53.07;19.00;;;;;;;;;;5029597;28;20283;-79
2022/11/13 07:59:46;;;;;;;69.33;19.17;;;;;;;;;;5034611;28;20201;-79
2022/11/13 08:02:15;;;;;;;88.97;19.40;;;;;;;;;;5034376;28;20303;-79
2022/11/13 08:04:42;;;;;;;70.93;18.33;;;;;;;;;;5018847;28;20264;-79
2022/11/13 08:07:12;;;;;;;33.47;17.57;;;;;;;;;;5024372;28;20231;-79
2022/11/13 08:09:40;;;;;;;31.23;18.27;;;;;;;;;;5019915;28;20204;-80
2022/11/13 08:12:07;;;;;;;33.30;19.30;;;;;;;;;;5016948;28;20205;-79
2022/11/13 08:14:34;;;;;;;44.50;19.13;;;;;;;;;;5023625;28;20242;-79
2022/11/13 08:17:02;;;;;;;55.03;18.47;;;;;;;;;;5017270;28;20201;-80
2022/11/13 08:19:29;;;;;;;46.63;18.53;;;;;;;;;;5014895;28;20209;-79
2022/11/13 08:21:56;;;;;;;37.23;18.97;;;;;;;;;;5020243;28;20225;-79
2022/11/13 08:24:25;;;;;;;35.37;18.57;;;;;;;;;;5031919;28;20680;-79
2022/11/13 08:26:52;;;;;;;25.93;18.43;;;;;;;;;;5025026;28;20665;-79
2022/11/13 08:29:19;;;;;;;30.47;19.30;;;;;;;;;;5021008;28;20266;-79
2022/11/13 08:31:47;;;;;;;57.93;19.53;;;;;;;;;;5024891;28;20279;-79
2022/11/13 08:34:14;;;;;;;60.13;18.57;;;;;;;;;;5025060;28;20275;-79
2022/11/13 08:36:41;;;;;;;29.87;18.03;;;;;;;;;;5017927;28;20313;-79
2022/11/13 08:39:09;;;;;;;36.77;17.80;;;;;;;;;;5018436;28;20204;-79
2022/11/13 08:41:37;;;;;;;47.83;18.87;;;;;;;;;;5017720;28;20268;-79
2022/11/13 08:44:05;;;;;;;29.00;18.57;;;;;;;;;;5013733;28;20270;-79
2022/11/13 08:46:32;;;;;;;27.10;18.23;;;;;;;;;;5035342;28;20254;-80
2022/11/13 08:48:59;;;;;;;23.43;18.43;;;;;;;;;;5021106;28;20280;-79
2022/11/13 08:51:26;;;;;;;28.60;20.83;;;;;;;;;;5006218;28;20768;-79
2022/11/13 08:53:53;;;;;;;24.17;18.03;;;;;;;;;;5028073;28;20224;-80
2022/11/13 08:56:21;;;;;;;21.47;16.80;;;;;;;;;;5014807;28;20300;-80
2022/11/13 08:58:49;;;;;;;20.57;15.90;;;;;;;;;;5015377;28;20240;-80
2022/11/13 09:01:17;;;;;;;21.37;16.80;;;;;;;;;;5032290;28;20287;-79
2022/11/13 09:03:44;;;;;;;19.83;16.17;;;;;;;;;;5021737;28;20253;-79
2022/11/13 09:06:11;;;;;;;18.47;15.13;;;;;;;;;;5030284;28;20284;-79
2022/11/13 09:08:38;;;;;;;17.30;14.30;;;;;;;;;;5022686;28;20324;-79
2022/11/13 09:11:05;;;;;;;14.80;12.73;;;;;;;;;;5017252;28;20305;-79
2022/11/13 09:13:33;;;;;;;13.70;12.07;;;;;;;;;;5016966;28;20200;-80
2022/11/13 09:16:02;;;;;;;13.90;11.57;;;;;;;;;;5020320;28;20205;-80
2022/11/13 09:18:30;;;;;;;11.50;10.30;;;;;;;;;;5016442;28;20209;-79
2022/11/13 09:21:01;;;;;;;12.77;11.13;;;;;;;;;;5014381;28;20233;-81
2022/11/13 09:23:29;;;;;;;11.87;10.57;;;;;;;;;;5014370;28;20201;-81
2022/11/13 09:25:56;;;;;;;12.37;10.47;;;;;;;;;;5027908;28;20619;-81
2022/11/13 09:28:24;;;;;;;12.33;11.03;;;;;;;;;;5015978;28;20193;-81
2022/11/13 09:30:51;;;;;;;11.50;10.30;;;;;;;;;;5021758;28;20232;-79
2022/11/13 09:33:22;;;;;;;11.38;10.07;;;;;;;;;;5011615;28;20296;-81
2022/11/13 09:35:50;;;;;;;11.02;9.15;;;;;;;;;;5014920;28;20198;-81
2022/11/13 09:38:17;;;;;;;10.07;9.07;;;;;;;;;;5010085;28;20194;-81
2022/11/13 09:40:48;;;;;;;9.60;8.70;;;;;;;;;;5022176;28;20235;-84
2022/11/13 09:43:22;;;;;;;9.90;8.73;;;;;;;;;;5019154;28;20231;-79
2022/11/13 09:45:49;;;;;;;9.00;8.10;;;;;;;;;;5027391;28;20213;-79
2022/11/13 09:48:21;;;;;;;9.70;8.70;;;;;;;;;;5030232;28;20607;-78
2022/11/13 09:50:50;;;;;;;9.00;8.10;;;;;;;;;;5012034;28;20241;-79
2022/11/13 09:53:17;;;;;;;8.65;7.78;;;;;;;;;;5021692;28;20197;-79
2022/11/13 09:55:48;;;;;;;8.77;7.88;;;;;;;;;;5015926;28;20236;-79
2022/11/13 09:58:20;;;;;;;9.20;8.30;;;;;;;;;;5016014;28;20205;-78
2022/11/13 10:00:47;;;;;;;8.20;7.30;;;;;;;;;;5028589;28;20941;-79
2022/11/13 10:03:23;;;;;;;8.52;7.63;;;;;;;;;;5021145;28;20250;-79
2022/11/13 10:05:55;;;;;;;8.00;7.03;;;;;;;;;;5019063;28;20287;-79
2022/11/13 10:08:23;;;;;;;8.40;7.50;;;;;;;;;;5023836;28;20736;-79
2022/11/13 10:10:52;;;;;;;6.85;6.25;;;;;;;;;;5020053;28;20392;-79
2022/11/13 10:13:22;;;;;;;7.50;6.80;;;;;;;;;;5019170;28;20288;-79
2022/11/13 10:15:51;;;;;;;6.88;6.28;;;;;;;;;;5011871;28;20199;-78
2022/11/13 10:18:21;;;;;;;7.15;6.45;;;;;;;;;;5021297;28;20232;-78
2022/11/13 10:20:50;;;;;;;7.03;6.20;;;;;;;;;;5014473;28;20326;-78
2022/11/13 10:23:21;;;;;;;7.72;6.95;;;;;;;;;;5015835;28;20239;-78
2022/11/13 10:25:50;;;;;;;7.60;6.32;;;;;;;;;;5017317;28;20232;-79
2022/11/13 10:28:18;;;;;;;7.55;6.57;;;;;;;;;;5023663;28;20201;-79
2022/11/13 10:30:46;;;;;;;6.88;6.20;;;;;;;;;;5020313;28;20253;-79
2022/11/13 10:33:15;;;;;;;7.35;6.28;;;;;;;;;;5017618;28;20688;-79
2022/11/13 10:35:46;;;;;;;7.13;6.53;;;;;;;;;;5017119;28;20288;-79
2022/11/13 10:38:18;;;;;;;7.10;6.40;;;;;;;;;;5020399;28;20616;-79
2022/11/13 10:40:47;;;;;;;6.38;5.80;;;;;;;;;;5015937;28;20283;-78
2022/11/13 10:43:15;;;;;;;8.48;6.35;;;;;;;;;;5011977;28;20288;-79
2022/11/13 10:45:43;;;;;;;7.00;6.18;;;;;;;;;;5019995;28;20205;-79
2022/11/13 10:48:20;;;;;;;7.05;6.30;;;;;;;;;;5022084;28;20224;-79
2022/11/13 10:50:53;;;;;;;7.45;6.03;;;;;;;;;;5011484;28;20226;-79
2022/11/13 10:53:21;;;;;;;7.03;6.25;;;;;;;;;;5017362;28;20299;-79
2022/11/13 10:55:50;;;;;;;8.57;6.47;;;;;;;;;;5015355;28;20219;-79
2022/11/13 10:58:22;;;;;;;7.50;6.45;;;;;;;;;;5018037;28;20286;-79
2022/11/13 11:00:49;;;;;;;10.35;9.18;;;;;;;;;;5022147;28;20201;-79
2022/11/13 11:03:18;;;;;;;6.90;6.05;;;;;;;;;;5001391;28;20221;-79
2022/11/13 11:05:55;;;;;;;7.15;6.10;;;;;;;;;;5020513;28;20284;-79
2022/11/13 11:08:24;;;;;;;7.18;6.13;;;;;;;;;;5010039;28;20218;-79
2022/11/13 11:13:43;;;;;;;6.18;5.50;;;;;;;;;;5014158;28;20340;-79
2022/11/13 11:16:12;;;;;;;6.53;5.82;;;;;;;;;;5012158;28;20232;-79
2022/11/13 11:18:42;;;;;;;7.43;5.75;;;;;;;;;;5014660;28;21891;-79
2022/11/13 11:21:13;;;;;;;6.53;5.45;;;;;;;;;;5023364;28;20235;-79
2022/11/13 11:23:44;;;;;;;6.50;5.85;;;;;;;;;;5011858;28;20697;-79
2022/11/13 11:26:16;;;;;;;6.95;6.10;;;;;;;;;;5026789;28;20681;-78
2022/11/13 11:28:45;;;;;;;6.15;5.55;;;;;;;;;;5018189;28;20274;-79
2022/11/13 11:31:13;;;;;;;7.25;5.80;;;;;;;;;;5010509;28;20268;-78
2022/11/13 11:33:45;;;;;;;8.10;6.55;;;;;;;;;;5012312;28;20648;-78
2022/11/13 11:36:17;;;;;;;6.90;6.07;;;;;;;;;;5014755;28;20283;-78
2022/11/13 11:38:49;;;;;;;8.25;6.60;;;;;;;;;;5011770;28;20304;-79
2022/11/13 11:41:19;;;;;;;7.82;6.38;;;;;;;;;;5016305;28;20280;-78
2022/11/13 11:43:48;;;;;;;7.03;6.40;;;;;;;;;;5017349;28;20293;-79
2022/11/13 11:46:19;;;;;;;6.82;6.15;;;;;;;;;;5016493;28;20232;-80
2022/11/13 11:48:46;;;;;;;8.32;7.07;;;;;;;;;;5019894;28;20287;-79
2022/11/13 11:51:17;;;;;;;7.35;5.97;;;;;;;;;;5022819;28;20713;-79
2022/11/13 11:53:51;;;;;;;8.13;6.43;;;;;;;;;;5011972;28;20235;-79
2022/11/13 11:56:23;;;;;;;7.38;6.20;;;;;;;;;;5011756;28;20284;-79
2022/11/13 11:59:01;;;;;;;7.35;6.65;;;;;;;;;;5012106;28;20207;-79
2022/11/13 12:01:33;;;;;;;6.57;5.97;;;;;;;;;;5016763;28;20291;-79
2022/11/13 12:04:15;;;;;;;7.75;6.35;;;;;;;;;;5026186;28;20251;-79
2022/11/13 12:06:48;;;;;;;6.97;6.28;;;;;;;;;;5016023;28;20280;-78
2022/11/13 12:09:19;;;;;;;6.15;5.55;;;;;;;;;;5010954;28;20264;-79
2022/11/13 12:11:50;;;;;;;6.60;6.00;;;;;;;;;;5012117;28;20785;-79
2022/11/13 12:14:23;;;;;;;6.50;5.85;;;;;;;;;;5012193;28;20335;-79
2022/11/13 12:16:52;;;;;;;7.13;5.80;;;;;;;;;;5022518;28;20243;-79
2022/11/13 12:19:24;;;;;;;6.07;5.47;;;;;;;;;;5020310;28;20326;-79
2022/11/13 12:21:56;;;;;;;5.97;5.38;;;;;;;;;;5004811;28;20297;-79
2022/11/13 12:24:32;;;;;;;6.38;5.55;;;;;;;;;;5012139;28;20289;-79
2022/11/13 12:27:07;;;;;;;7.50;5.43;;;;;;;;;;5009752;28;20611;-79
2022/11/13 12:29:40;;;;;;;6.55;5.45;;;;;;;;;;5008619;28;20260;-79
2022/11/13 12:32:12;;;;;;;6.72;5.90;;;;;;;;;;4662222;28;10000384;-79
2022/11/13 12:34:42;;;;;;;6.40;5.80;;;;;;;;;;5016419;28;20205;-81
2022/11/13 12:37:12;;;;;;;7.25;5.43;;;;;;;;;;5016002;28;20303;-81
2022/11/13 12:39:43;;;;;;;8.45;5.88;;;;;;;;;;5021836;28;20740;-82
2022/11/13 12:42:18;;;;;;;8.25;5.65;;;;;;;;;;5018481;28;20728;-81
2022/11/13 12:44:50;;;;;;;7.07;6.18;;;;;;;;;;5025457;28;20227;-82
2022/11/13 12:47:17;;;;;;;7.75;6.07;;;;;;;;;;5011180;28;20253;-81
2022/11/13 12:49:47;;;;;;;6.03;5.40;;;;;;;;;;5014722;28;20245;-82
2022/11/13 12:52:21;;;;;;;5.60;4.78;;;;;;;;;;5013092;28;20228;-82
2022/11/13 12:54:49;;;;;;;7.30;5.32;;;;;;;;;;5019115;28;20647;-81
2022/11/13 12:57:23;;;;;;;5.82;5.32;;;;;;;;;;5022097;28;20233;-81
2022/11/13 12:59:52;;;;;;;5.97;5.38;;;;;;;;;;5018905;28;20288;-81
2022/11/13 13:02:32;;;;;;;8.57;5.63;;;;;;;;;;5017358;28;20193;-81
2022/11/13 13:05:07;;;;;;;6.45;4.93;;;;;;;;;;5015875;28;20197;-81
2022/11/13 13:07:45;;;;;;;6.78;5.32;;;;;;;;;;5017934;28;20228;-82
2022/11/13 13:10:17;;;;;;;7.50;5.45;;;;;;;;;;5015487;28;20205;-81
2022/11/13 13:12:53;;;;;;;11.60;5.88;;;;;;;;;;5023040;28;20221;-81
2022/11/13 13:15:29;;;;;;;7.38;4.70;;;;;;;;;;5004584;28;20235;-81
2022/11/13 13:18:05;;;;;;;7.10;5.35;;;;;;;;;;5012551;28;20739;-81
2022/11/13 13:20:34;;;;;;;6.07;4.95;;;;;;;;;;5018320;28;20205;-81
2022/11/13 13:23:02;;;;;;;6.50;5.20;;;;;;;;;;5021237;28;20303;-81
2022/11/13 13:25:30;;;;;;;6.25;5.55;;;;;;;;;;5014847;28;20299;-82
2022/11/13 13:27:59;;;;;;;6.40;5.60;;;;;;;;;;5014538;28;20249;-82
2022/11/13 13:30:28;;;;;;;5.88;5.28;;;;;;;;;;5014825;28;20687;-82
2022/11/13 13:33:01;;;;;;;6.15;5.55;;;;;;;;;;5009562;28;20233;-81
2022/11/13 13:35:33;;;;;;;7.47;5.40;;;;;;;;;;5022024;28;20255;-81
2022/11/13 13:38:06;;;;;;;6.10;5.50;;;;;;;;;;5019663;28;20211;-81
2022/11/13 13:40:38;;;;;;;5.40;4.88;;;;;;;;;;5010934;28;20965;-81
2022/11/13 13:43:24;;;;;;;5.75;4.97;;;;;;;;;;5007389;28;20198;-81
2022/11/13 13:45:57;;;;;;;5.50;4.63;;;;;;;;;;5013295;28;20622;-81
2022/11/13 13:48:25;;;;;;;9.45;5.03;;;;;;;;;;5016602;28;20213;-81
2022/11/13 13:50:54;;;;;;;6.22;5.00;;;;;;;;;;5017564;28;20661;-82
2022/11/13 13:53:23;;;;;;;5.50;4.88;;;;;;;;;;5017173;28;20261;-81
2022/11/13 13:55:52;;;;;;;5.57;5.00;;;;;;;;;;5024598;28;20267;-82
2022/11/13 13:58:25;;;;;;;6.20;4.72;;;;;;;;;;5029063;28;20291;-81
2022/11/13 14:04:26;;;;;;;6.28;4.90;;;;;;;;;;4992367;28;20287;-82
2022/11/13 14:06:54;;;;;;;6.30;5.03;;;;;;;;;;5013876;28;20693;-82
2022/11/13 14:09:22;;;;;;;6.28;4.97;;;;;;;;;;5020879;28;20205;-82
2022/11/13 14:12:04;;;;;;;7.88;5.00;;;;;;;;;;5022172;28;20224;-81
2022/11/13 14:14:48;;;;;;;6.57;5.15;;;;;;;;;;5015136;28;20200;-82
2022/11/13 14:17:23;;;;;;;6.63;5.20;;;;;;;;;;5008976;28;20259;-81
2022/11/13 14:22:52;;;;;;;6.18;5.60;;;;;;;;;;4996231;28;20280;-81
2022/11/13 14:25:21;;;;;;;6.13;5.10;;;;;;;;;;5025423;28;20273;-81
2022/11/13 14:27:49;;;;;;;5.90;4.85;;;;;;;;;;5015053;28;20242;-81
2022/11/13 14:30:25;;;;;;;5.70;5.03;;;;;;;;;;5018159;28;20724;-82
2022/11/13 14:32:53;;;;;;;6.25;5.22;;;;;;;;;;5015642;28;20258;-82
2022/11/13 14:35:21;;;;;;;6.43;5.18;;;;;;;;;;5013778;28;20224;-81
2022/11/13 14:37:48;;;;;;;5.47;4.75;;;;;;;;;;5020565;28;20236;-81
2022/11/13 14:40:20;;;;;;;5.90;5.00;;;;;;;;;;4994054;28;20712;-82
2022/11/13 14:42:50;;;;;;;6.10;5.50;;;;;;;;;;5020552;28;20235;-81
2022/11/13 14:45:18;;;;;;;6.47;5.13;;;;;;;;;;5015468;28;20204;-81
2022/11/13 14:47:57;;;;;;;6.40;5.05;;;;;;;;;;5013604;28;20250;-81